Time;durP1;ratioP1;P1;durP2;ratioP2;P2;SDS_P1;SDS_P2;PMS_P1;PMS_P2;Temp;Humidity;BMP_temperature;BMP_pressure;BME280_temperature;BME280_humidity;BME280_pressure;Samples;Min_cycle;Max_cycle;Signal;HPM_P1;HPM_P2
2021/06/06 00:01:49;;;;;;;26.40;23.83;;;;;;;17.53;100.00;100970.16;5093244;28;20020;-85
2021/06/06 00:04:18;;;;;;;26.50;23.80;;;;;;;17.50;100.00;100970.28;5095375;28;20028;-85
2021/06/06 00:06:44;;;;;;;26.15;23.55;;;;;;;17.42;100.00;100972.34;5097479;28;20445;-85
2021/06/06 00:09:17;;;;;;;26.70;23.80;;;;;;;17.39;100.00;100977.72;5096249;28;20107;-85
2021/06/06 00:11:52;;;;;;;26.40;23.67;;;;;;;17.38;100.00;100973.41;5096167;28;20498;-85
2021/06/06 00:14:31;;;;;;;26.60;23.92;;;;;;;17.30;100.00;100975.47;5096117;28;20118;-85
2021/06/06 00:17:10;;;;;;;26.33;23.52;;;;;;;17.35;100.00;100978.75;5097778;28;20157;-85
2021/06/06 00:19:36;;;;;;;25.80;23.25;;;;;;;17.29;100.00;100968.53;5096104;28;20065;-85
2021/06/06 00:22:03;;;;;;;25.30;22.90;;;;;;;17.29;100.00;100985.09;5096023;28;20527;-85
2021/06/06 00:24:33;;;;;;;27.35;24.58;;;;;;;17.22;100.00;100975.78;5095966;28;20028;-88
2021/06/06 00:27:01;;;;;;;26.17;23.67;;;;;;;17.22;100.00;100986.25;5097286;28;20020;-88
2021/06/06 00:29:27;;;;;;;27.10;24.40;;;;;;;17.31;100.00;100982.44;5095819;28;20468;-86
2021/06/06 00:31:56;;;;;;;26.63;23.92;;;;;;;17.25;100.00;100986.16;5097487;28;20031;-86
2021/06/06 00:34:23;;;;;;;24.73;22.33;;;;;;;17.17;100.00;100983.81;5096928;28;20081;-86
2021/06/06 00:36:48;;;;;;;23.67;21.30;;;;;;;17.17;100.00;100989.03;5095682;28;20212;-85
2021/06/06 00:39:14;;;;;;;23.45;21.15;;;;;;;17.20;100.00;100990.69;5095610;28;20020;-85
2021/06/06 00:41:41;;;;;;;21.05;18.95;;;;;;;17.14;100.00;100983.06;5096589;28;20024;-85
2021/06/06 00:44:07;;;;;;;19.92;17.85;;;;;;;17.14;100.00;100981.31;5097753;28;20173;-85
2021/06/06 00:46:33;;;;;;;20.20;18.20;;;;;;;17.18;100.00;100975.06;5095561;28;20480;-85
2021/06/06 00:49:00;;;;;;;20.27;18.25;;;;;;;17.16;100.00;100987.34;5095425;28;20031;-86
2021/06/06 00:51:42;;;;;;;24.67;18.80;;;;;;;17.13;100.00;100989.25;5095723;28;20034;-86
2021/06/06 00:54:15;;;;;;;21.58;19.45;;;;;;;17.16;100.00;100997.84;5096690;28;20031;-87
2021/06/06 00:56:44;;;;;;;22.77;20.35;;;;;;;17.09;100.00;100992.88;5096573;28;20023;-86
2021/06/06 00:59:11;;;;;;;21.65;19.58;;;;;;;17.09;100.00;101000.72;5095613;28;20032;-86
2021/06/06 01:01:41;;;;;;;22.40;20.20;;;;;;;17.09;100.00;101000.72;5095281;28;20028;-85
2021/06/06 01:04:07;;;;;;;25.33;22.63;;;;;;;17.13;100.00;101002.34;5095280;28;20024;-86
2021/06/06 01:06:50;;;;;;;26.42;23.83;;;;;;;17.11;100.00;100997.16;5095299;28;20392;-87
2021/06/06 01:09:19;;;;;;;28.55;25.65;;;;;;;17.12;100.00;101003.25;5095339;28;20391;-87
2021/06/06 01:12:04;;;;;;;32.55;29.05;;;;;;;17.11;100.00;100994.53;5094943;28;20054;-87
2021/06/06 01:14:41;;;;;;;31.45;28.25;;;;;;;17.07;100.00;100994.72;5095221;28;20024;-86
2021/06/06 01:17:21;;;;;;;34.60;31.05;;;;;;;17.13;100.00;100994.47;5095246;28;20020;-86
2021/06/06 01:19:53;;;;;;;36.97;33.33;;;;;;;17.04;100.00;100993.06;5094538;28;20085;-86
2021/06/06 01:22:44;;;;;;;38.72;34.85;;;;;;;17.06;100.00;100993.88;5094783;28;20020;-86
2021/06/06 01:25:13;;;;;;;41.80;37.33;;;;;;;16.91;100.00;100997.06;5094855;28;20034;-86
2021/06/06 01:28:25;;;;;;;40.28;36.28;;;;;;;16.98;100.00;100995.91;5096035;28;20028;-86
2021/06/06 01:30:55;;;;;;;42.72;38.40;;;;;;;16.92;100.00;100997.00;5094558;28;20027;-86
2021/06/06 01:33:25;;;;;;;43.25;38.78;;;;;;;16.87;100.00;100990.22;5094568;28;20020;-86
2021/06/06 01:35:57;;;;;;;44.45;39.95;;;;;;;16.87;100.00;100995.44;5095115;28;20083;-87
2021/06/06 01:38:33;;;;;;;44.83;40.33;;;;;;;16.80;100.00;100993.06;5094551;28;20130;-86
2021/06/06 01:41:01;;;;;;;45.10;40.53;;;;;;;16.78;100.00;100991.44;5095505;28;20114;-86
2021/06/06 01:43:35;;;;;;;45.97;41.25;;;;;;;16.75;100.00;100991.50;5094579;28;20028;-86
2021/06/06 01:46:08;;;;;;;43.88;39.42;;;;;;;16.72;100.00;100989.84;5094246;28;20020;-86
2021/06/06 01:48:37;;;;;;;45.22;40.45;;;;;;;16.77;100.00;100998.41;5095528;28;20500;-86
2021/06/06 01:51:11;;;;;;;45.50;40.83;;;;;;;16.75;100.00;100997.63;5094124;28;20051;-86
2021/06/06 01:53:41;;;;;;;43.13;38.72;;;;;;;16.72;100.00;100989.84;5094572;28;20028;-86
2021/06/06 01:56:08;;;;;;;43.88;39.47;;;;;;;16.71;100.00;100990.75;5095471;28;20024;-86
2021/06/06 01:58:38;;;;;;;42.38;37.97;;;;;;;16.74;100.00;100989.78;5094123;28;20381;-86
2021/06/06 02:01:11;;;;;;;42.70;38.47;;;;;;;16.69;100.00;100992.59;5094292;28;20507;-86
2021/06/06 02:03:36;;;;;;;40.97;36.92;;;;;;;16.60;100.00;100992.94;5095028;28;20107;-85
2021/06/06 02:06:10;;;;;;;42.38;38.03;;;;;;;16.65;100.00;100998.81;5093832;28;20043;-86
2021/06/06 02:08:39;;;;;;;42.43;38.13;;;;;;;16.65;100.00;100993.59;5094917;28;20063;-86
2021/06/06 02:11:32;;;;;;;45.58;40.83;;;;;;;16.57;100.00;100993.88;5093814;28;20112;-85
2021/06/06 02:14:07;;;;;;;44.47;39.97;;;;;;;16.60;100.00;100989.47;5093951;28;20571;-85
2021/06/06 02:16:39;;;;;;;44.88;40.08;;;;;;;16.59;100.00;100993.81;5094962;28;20369;-85
2021/06/06 02:19:05;;;;;;;45.03;40.30;;;;;;;16.49;100.00;100995.91;5093792;28;20476;-86
2021/06/06 02:21:31;;;;;;;46.65;41.65;;;;;;;16.51;100.00;100993.25;5093789;28;20020;-85
2021/06/06 02:23:57;;;;;;;47.65;42.55;;;;;;;16.44;100.00;100995.25;5093770;28;20107;-86
2021/06/06 02:27:01;;;;;;;48.78;43.67;;;;;;;16.48;100.00;101006.47;5094733;28;20398;-86
2021/06/06 02:30:11;;;;;;;48.63;43.58;;;;;;;16.50;100.00;100996.75;5089620;28;20081;-86
2021/06/06 02:33:04;;;;;;;49.08;43.80;;;;;;;16.42;100.00;101002.28;5049458;28;20542;-86
2021/06/06 02:35:41;;;;;;;55.53;45.05;;;;;;;16.42;100.00;101002.28;5083834;28;20028;-86
2021/06/06 02:38:12;;;;;;;56.20;49.28;;;;;;;16.41;100.00;100991.84;5093445;28;20024;-86
2021/06/06 02:40:45;;;;;;;54.88;48.80;;;;;;;16.39;100.00;100999.78;5094277;28;20023;-86
2021/06/06 02:43:24;;;;;;;54.58;48.65;;;;;;;16.33;100.00;100995.59;5093409;28;20073;-86
2021/06/06 02:45:56;;;;;;;58.72;51.92;;;;;;;16.31;100.00;101000.03;5094367;28;20032;-86
2021/06/06 02:48:27;;;;;;;62.13;52.50;;;;;;;16.24;100.00;100995.94;5094387;28;20077;-86
2021/06/06 02:50:56;;;;;;;58.58;52.17;;;;;;;16.25;100.00;100997.63;5093232;28;20020;-86
2021/06/06 02:53:33;;;;;;;62.90;54.10;;;;;;;16.24;100.00;100997.69;5093190;28;20472;-86
2021/06/06 02:56:10;;;;;;;67.95;55.28;;;;;;;16.23;100.00;100998.63;5093087;28;20476;-86
2021/06/06 02:58:43;;;;;;;64.90;54.53;;;;;;;16.16;100.00;100999.72;5093241;28;20483;-87
2021/06/06 03:01:25;;;;;;;65.63;57.60;;;;;;;16.17;100.00;100996.22;5093071;28;20039;-87
2021/06/06 03:03:52;;;;;;;64.30;56.50;;;;;;;16.13;100.00;100992.81;5092899;28;20020;-87
2021/06/06 03:06:35;;;;;;;70.90;57.20;;;;;;;16.15;100.00;100998.00;5093061;28;20533;-87
2021/06/06 03:09:00;;;;;;;65.10;55.78;;;;;;;16.14;100.00;100988.47;5094065;28;20136;-87
2021/06/06 03:11:32;;;;;;;67.70;56.45;;;;;;;16.08;100.00;100993.00;5092766;28;20051;-87
2021/06/06 03:14:07;;;;;;;67.57;58.10;;;;;;;16.09;100.00;100993.84;5093915;28;20031;-87
2021/06/06 03:16:38;;;;;;;69.60;58.03;;;;;;;16.07;100.00;100993.03;5092913;28;20106;-87
2021/06/06 03:19:06;;;;;;;69.03;57.00;;;;;;;16.07;100.00;100999.13;5094350;28;20077;-87
2021/06/06 03:21:35;;;;;;;68.72;57.97;;;;;;;16.00;100.00;101004.63;5092693;28;20020;-87
2021/06/06 03:24:06;;;;;;;72.70;59.17;;;;;;;15.98;100.00;100999.44;5092550;28;20043;-87
2021/06/06 03:26:34;;;;;;;73.65;60.60;;;;;;;15.92;100.00;101001.38;5093670;28;20396;-86
2021/06/06 03:29:03;;;;;;;77.47;63.58;;;;;;;15.86;100.00;101000.72;5092524;28;20024;-86
2021/06/06 03:31:33;;;;;;;83.85;63.25;;;;;;;15.82;100.00;100996.47;5092260;28;20057;-87
2021/06/06 03:34:00;;;;;;;78.55;60.33;;;;;;;15.81;100.00;100999.16;5092550;28;20032;-87
2021/06/06 03:36:31;;;;;;;81.03;60.10;;;;;;;15.80;100.00;100993.06;5092370;28;20020;-87
2021/06/06 03:38:57;;;;;;;77.95;60.13;;;;;;;15.71;100.00;100995.97;5092151;28;20492;-86
2021/06/06 03:41:29;;;;;;;76.18;59.58;;;;;;;15.66;100.00;101006.53;5093580;28;20024;-86
2021/06/06 03:43:55;;;;;;;80.78;60.58;;;;;;;15.69;100.00;101008.25;5093250;28;20483;-87
2021/06/06 03:46:22;;;;;;;79.88;59.78;;;;;;;15.67;100.00;101015.28;5093355;28;20028;-87
2021/06/06 03:48:47;;;;;;;76.88;59.05;;;;;;;15.72;100.00;101009.91;5092623;28;20063;-87
2021/06/06 03:51:14;;;;;;;78.78;59.78;;;;;;;15.62;100.00;101007.56;5092560;28;20081;-87
2021/06/06 03:53:40;;;;;;;75.68;57.78;;;;;;;15.60;100.00;101006.72;5092822;28;20035;-86
2021/06/06 03:56:10;;;;;;;80.15;59.40;;;;;;;15.64;100.00;101016.22;5093556;28;20020;-87
2021/06/06 03:58:37;;;;;;;74.60;57.42;;;;;;;15.64;100.00;101015.38;5093663;28;20028;-87
2021/06/06 04:01:04;;;;;;;76.35;56.25;;;;;;;15.69;100.00;101017.84;5092428;28;20111;-87
2021/06/06 04:03:29;;;;;;;70.70;55.58;;;;;;;15.67;100.00;101017.91;5092489;28;20028;-88
2021/06/06 04:05:54;;;;;;;72.20;56.85;;;;;;;15.69;100.00;101018.69;5092398;28;20024;-88
2021/06/06 04:08:20;;;;;;;77.18;61.33;;;;;;;15.65;100.00;101020.53;5092255;28;20032;-87
2021/06/06 04:10:46;;;;;;;86.90;62.05;;;;;;;15.66;100.00;101021.38;5092326;28;20020;-87
2021/06/06 04:13:14;;;;;;;81.38;61.25;;;;;;;15.62;100.00;101018.00;5093209;28;20078;-87
2021/06/06 04:15:39;;;;;;;74.65;58.67;;;;;;;15.67;100.00;101025.75;5092188;28;20016;-87
2021/06/06 04:18:12;;;;;;;77.93;58.15;;;;;;;15.61;100.00;101024.16;5092169;28;20037;-87
2021/06/06 04:20:38;;;;;;;70.40;55.30;;;;;;;15.67;100.00;101023.16;5093425;28;20020;-87
2021/06/06 04:23:04;;;;;;;71.18;56.20;;;;;;;15.66;100.00;101026.59;5092420;28;20047;-87
2021/06/06 04:25:30;;;;;;;73.25;55.10;;;;;;;15.60;100.00;101022.41;5092388;28;20062;-87
2021/06/06 04:27:55;;;;;;;69.68;53.13;;;;;;;15.59;100.00;101020.72;5093247;28;20052;-87
2021/06/06 04:30:23;;;;;;;73.00;53.63;;;;;;;15.63;100.00;101024.09;5092569;28;20020;-87
2021/06/06 04:32:49;;;;;;;68.55;52.30;;;;;;;15.66;100.00;101021.38;5091937;28;20032;-88
2021/06/06 04:35:15;;;;;;;66.45;51.95;;;;;;;15.56;100.00;101020.81;5092819;28;20391;-88
2021/06/06 04:37:41;;;;;;;65.85;52.28;;;;;;;15.57;100.00;101025.13;5091632;28;20387;-87
2021/06/06 04:40:09;;;;;;;65.05;50.28;;;;;;;15.62;100.00;101022.38;5093445;28;20103;-87
2021/06/06 04:42:35;;;;;;;67.57;51.50;;;;;;;15.68;100.00;101024.84;5091521;28;20035;-87
2021/06/06 04:45:00;;;;;;;59.15;50.05;;;;;;;15.70;100.00;101030.00;5092083;28;20024;-87
2021/06/06 04:47:25;;;;;;;59.47;48.60;;;;;;;15.61;100.00;101025.91;5091507;28;20024;-87
2021/06/06 04:49:51;;;;;;;59.17;48.35;;;;;;;15.71;100.00;101032.59;5092015;28;20024;-87
2021/06/06 04:52:18;;;;;;;57.67;46.47;;;;;;;15.66;100.00;101031.84;5094868;28;20051;-87
2021/06/06 04:54:44;;;;;;;48.85;42.05;;;;;;;15.64;100.00;101041.50;5095404;28;20042;-87
2021/06/06 04:57:10;;;;;;;47.83;40.80;;;;;;;15.61;100.00;101036.38;5095716;28;20479;-87
2021/06/06 04:59:37;;;;;;;50.50;43.47;;;;;;;15.67;100.00;101041.44;5095245;28;20104;-87
2021/06/06 05:02:09;;;;;;;49.90;42.78;;;;;;;15.67;100.00;101036.22;5095320;28;20023;-87
2021/06/06 05:04:36;;;;;;;52.10;43.90;;;;;;;15.59;100.00;101039.03;5095195;28;20036;-87
2021/06/06 05:07:01;;;;;;;55.13;44.85;;;;;;;15.60;100.00;101034.66;5095656;28;20115;-87
2021/06/06 05:09:27;;;;;;;53.92;43.65;;;;;;;15.64;100.00;101036.28;5095480;28;20074;-87
2021/06/06 05:11:55;;;;;;;52.28;44.78;;;;;;;15.65;100.00;101037.97;5095275;28;20031;-87
2021/06/06 05:14:21;;;;;;;55.17;44.75;;;;;;;15.70;100.00;101041.34;5095448;28;20036;-87
2021/06/06 05:16:46;;;;;;;53.97;43.63;;;;;;;15.64;100.00;101046.75;5094903;28;20027;-87
2021/06/06 05:19:13;;;;;;;52.53;43.92;;;;;;;15.68;100.00;101044.91;5095800;28;20053;-87
2021/06/06 05:21:39;;;;;;;52.58;42.25;;;;;;;15.69;100.00;101044.00;5095204;28;20030;-87
2021/06/06 05:24:05;;;;;;;54.53;44.20;;;;;;;15.64;100.00;101038.91;5095524;28;20024;-87
2021/06/06 05:26:31;;;;;;;55.35;44.83;;;;;;;15.72;100.00;101043.91;5094886;28;20175;-87
2021/06/06 05:28:56;;;;;;;59.53;45.60;;;;;;;15.69;100.00;101044.00;5095359;28;20478;-87
2021/06/06 05:31:22;;;;;;;55.80;45.30;;;;;;;15.69;100.00;101041.38;5095376;28;20479;-87
2021/06/06 05:33:48;;;;;;;57.15;46.05;;;;;;;15.70;100.00;101040.47;5095091;28;20031;-87
2021/06/06 05:36:14;;;;;;;59.05;46.30;;;;;;;15.76;100.00;101045.50;5094756;28;20464;-87
2021/06/06 05:38:40;;;;;;;56.13;45.78;;;;;;;15.66;100.00;101037.06;5094599;28;20028;-87
2021/06/06 05:41:15;;;;;;;55.42;44.63;;;;;;;15.64;100.00;101038.91;5094771;28;20119;-87
2021/06/06 05:43:43;;;;;;;56.65;45.28;;;;;;;15.71;100.00;101037.81;5094820;28;20039;-87
2021/06/06 05:46:14;;;;;;;61.33;47.67;;;;;;;15.71;100.00;101034.34;5094083;28;20032;-87
2021/06/06 05:48:40;;;;;;;55.15;46.67;;;;;;;15.66;100.00;101034.44;5095408;28;20020;-87
2021/06/06 05:51:09;;;;;;;55.17;44.85;;;;;;;15.74;100.00;101037.72;5094208;28;20507;-87
2021/06/06 05:53:35;;;;;;;57.28;46.75;;;;;;;15.75;100.00;101034.19;5094700;28;20028;-87
2021/06/06 05:56:03;;;;;;;57.95;48.05;;;;;;;15.71;100.00;101039.59;5094738;28;20024;-87
2021/06/06 05:58:29;;;;;;;60.33;45.63;;;;;;;15.76;100.00;101043.75;5094639;28;20077;-88
2021/06/06 06:00:54;;;;;;;53.80;43.80;;;;;;;15.68;100.00;101042.28;5094508;28;20020;-88
2021/06/06 06:03:21;;;;;;;57.50;46.00;;;;;;;15.74;100.00;101042.09;5094260;28;20023;-88
2021/06/06 06:05:46;;;;;;;50.45;41.80;;;;;;;15.69;100.00;101044.84;5094763;28;20016;-87
2021/06/06 06:08:19;;;;;;;49.90;41.40;;;;;;;15.69;100.00;101044.84;5093857;28;20103;-87
2021/06/06 06:10:45;;;;;;;49.40;40.10;;;;;;;15.76;100.00;101046.34;5095070;28;20027;-88
2021/06/06 06:13:29;;;;;;;46.42;38.53;;;;;;;15.64;100.00;101052.81;5094314;28;20028;-87
2021/06/06 06:15:56;;;;;;;49.85;39.60;;;;;;;15.68;100.00;101051.00;5093915;28;20028;-88
2021/06/06 06:18:24;;;;;;;47.78;38.17;;;;;;;15.64;100.00;101047.59;5094109;28;20028;-88
2021/06/06 06:20:50;;;;;;;44.55;36.53;;;;;;;15.68;100.00;101047.53;5093868;28;20024;-88
2021/06/06 06:23:24;;;;;;;44.53;36.65;;;;;;;15.60;100.00;101043.34;5094547;28;20028;-87
2021/06/06 06:25:50;;;;;;;;;;;;;;;15.60;100.00;101042.50;5094416;28;20024;-87
2021/06/06 06:28:16;;;;;;;44.25;35.08;;;;;;;15.63;100.00;101051.09;5110969;28;19911;-87
2021/06/06 06:30:41;;;;;;;50.28;37.38;;;;;;;15.47;100.00;101059.47;5108082;22;20036;-79
2021/06/06 06:33:08;;;;;;;45.67;34.63;;;;;;;15.46;100.00;101052.53;5091118;28;20105;-79
2021/06/06 06:35:36;;;;;;;50.78;37.50;;;;;;;15.51;100.00;101058.47;5076149;28;20025;-81
2021/06/06 06:38:03;;;;;;;49.05;36.20;;;;;;;15.44;100.00;101060.41;5077104;28;20138;-82
2021/06/06 06:40:29;;;;;;;45.60;36.33;;;;;;;15.50;100.00;101062.00;5073911;28;20495;-82
2021/06/06 06:42:55;;;;;;;50.38;36.38;;;;;;;15.50;100.00;101067.22;5075618;28;20028;-82
2021/06/06 06:45:28;;;;;;;47.30;34.65;;;;;;;15.46;100.00;101065.59;5073822;28;20035;-81
2021/06/06 06:47:59;;;;;;;51.88;34.80;;;;;;;15.48;100.00;101071.63;5075554;28;20066;-82
2021/06/06 06:50:24;;;;;;;48.25;36.05;;;;;;;15.55;100.00;101073.19;5073634;28;20027;-82
2021/06/06 06:52:50;;;;;;;49.45;35.28;;;;;;;15.62;100.00;101078.16;5075701;28;20024;-82
2021/06/06 06:55:18;;;;;;;52.15;37.05;;;;;;;15.60;100.00;101082.56;5076072;28;20020;-82
2021/06/06 06:57:44;;;;;;;46.67;35.22;;;;;;;15.62;100.00;101083.38;5076079;28;20017;-83
2021/06/06 07:00:18;;;;;;;49.58;34.85;;;;;;;15.69;100.00;101078.00;5093994;28;20029;-83
2021/06/06 07:02:49;;;;;;;45.63;33.60;;;;;;;15.75;100.00;101077.81;5095270;28;20041;-82
2021/06/06 07:05:18;;;;;;;48.78;34.05;;;;;;;15.71;100.00;101084.91;5074106;28;20032;-82
2021/06/06 07:07:43;;;;;;;48.83;35.00;;;;;;;15.80;100.00;101083.75;5074778;28;20032;-82
2021/06/06 07:10:28;;;;;;;52.70;36.00;;;;;;;15.85;100.00;101084.44;5072733;28;20553;-82
2021/06/06 07:12:53;;;;;;;50.70;34.70;;;;;;;15.97;100.00;101096.28;5073675;28;20035;-82
2021/06/06 07:15:19;;;;;;;47.28;33.08;;;;;;;15.95;100.00;101092.84;5073060;28;20028;-82
2021/06/06 07:17:45;;;;;;;47.92;33.90;;;;;;;15.92;100.00;101087.72;5074088;28;20024;-82
2021/06/06 07:20:17;;;;;;;50.50;33.65;;;;;;;15.94;100.00;101092.00;5073487;28;20112;-81
2021/06/06 07:22:42;;;;;;;47.42;33.08;;;;;;;16.05;100.00;101091.69;5075191;28;20028;-81
2021/06/06 07:25:11;;;;;;;48.22;33.50;;;;;;;16.10;100.00;101098.47;5075684;28;20388;-82
2021/06/06 07:27:48;;;;;;;47.58;33.63;;;;;;;16.11;100.00;101096.72;5073787;28;20051;-81
2021/06/06 07:30:18;;;;;;;46.72;33.40;;;;;;;16.13;100.00;101105.34;5074838;28;20062;-81
2021/06/06 07:32:49;;;;;;;49.17;33.78;;;;;;;16.17;100.00;101101.75;5072811;28;20039;-82
2021/06/06 07:35:25;;;;;;;50.20;33.08;;;;;;;16.17;100.00;101098.28;5074976;28;20047;-82
2021/06/06 07:37:51;;;;;;;47.83;33.10;;;;;;;16.15;100.00;101094.84;5074475;28;20024;-82
2021/06/06 07:40:17;;;;;;;50.08;34.50;;;;;;;16.05;100.00;101097.75;5074832;28;20439;-82
2021/06/06 07:42:43;;;;;;;49.03;33.70;;;;;;;16.08;100.00;101092.44;5074830;28;20027;-82
2021/06/06 07:45:11;;;;;;;50.22;34.72;;;;;;;16.07;100.00;101095.06;5074604;28;20024;-82
2021/06/06 07:47:40;;;;;;;51.33;33.17;;;;;;;16.13;100.00;101096.66;5074402;28;20492;-82
2021/06/06 07:50:06;;;;;;;53.67;33.15;;;;;;;16.06;100.00;101096.84;5073691;28;20103;-82
2021/06/06 07:52:35;;;;;;;49.80;32.70;;;;;;;16.08;100.00;101097.66;5074246;28;20051;-82
2021/06/06 07:55:01;;;;;;;50.63;31.90;;;;;;;16.07;100.00;101098.56;5073686;28;20016;-82
2021/06/06 07:57:26;;;;;;;54.60;33.38;;;;;;;16.06;100.00;101101.22;5073319;28;20035;-82
2021/06/06 07:59:51;;;;;;;53.50;32.67;;;;;;;15.86;100.00;101107.09;5073013;28;20035;-81
2021/06/06 08:02:17;;;;;;;57.72;32.13;;;;;;;15.85;100.00;101111.47;5075717;28;20488;-82
2021/06/06 08:04:42;;;;;;;52.15;31.65;;;;;;;15.95;100.00;101101.59;5073564;28;20029;-82
2021/06/06 08:07:07;;;;;;;54.47;32.72;;;;;;;16.01;100.00;101111.84;5073583;28;20028;-82
2021/06/06 08:09:36;;;;;;;52.28;31.85;;;;;;;16.09;100.00;101103.75;5074703;28;20066;-82
2021/06/06 08:12:02;;;;;;;55.88;32.33;;;;;;;16.07;100.00;101110.78;5073058;28;20021;-82
2021/06/06 08:14:27;;;;;;;54.28;32.55;;;;;;;15.97;100.00;101114.59;5075037;28;20159;-81
2021/06/06 08:16:53;;;;;;;56.33;32.22;;;;;;;15.94;100.00;101112.94;5075389;28;20545;-81
2021/06/06 08:19:21;;;;;;;52.33;31.77;;;;;;;16.00;100.00;101114.50;5075251;28;20020;-80
2021/06/06 08:21:48;;;;;;;56.15;32.80;;;;;;;15.99;100.00;101116.28;5073106;28;20463;-81
2021/06/06 08:24:13;;;;;;;60.55;32.10;;;;;;;15.97;100.00;101106.75;5073239;28;20021;-81
2021/06/06 08:26:39;;;;;;;54.83;31.48;;;;;;;16.07;100.00;101110.78;5077398;28;20031;-81
2021/06/06 08:29:07;;;;;;;58.08;32.60;;;;;;;16.07;100.00;101116.00;5076556;28;20476;-81
2021/06/06 08:31:34;;;;;;;53.17;31.95;;;;;;;16.16;100.00;101113.09;5078913;28;20132;-81
2021/06/06 08:34:00;;;;;;;57.63;32.38;;;;;;;16.22;100.00;101112.03;5078097;28;20029;-81
2021/06/06 08:36:33;;;;;;;50.88;30.00;;;;;;;16.04;100.00;101109.16;5078266;28;20021;-81
2021/06/06 08:39:00;;;;;;;47.72;29.38;;;;;;;16.10;100.00;101113.28;5077488;28;20032;-81
2021/06/06 08:41:50;;;;;;;50.78;29.90;;;;;;;16.18;100.00;101111.28;5079004;28;20464;-81
2021/06/06 08:44:21;;;;;;;47.83;29.55;;;;;;;16.31;100.00;101120.44;5076873;28;20035;-81
2021/06/06 08:46:56;;;;;;;47.97;29.98;;;;;;;16.31;100.00;101122.22;5076838;28;20021;-82
2021/06/06 08:49:22;;;;;;;46.53;29.40;;;;;;;16.32;100.00;101119.56;5078030;28;20032;-81
2021/06/06 08:51:52;;;;;;;49.25;30.40;;;;;;;16.32;100.00;101122.19;5078006;28;20024;-81
2021/06/06 08:54:41;;;;;;;45.80;28.73;;;;;;;16.54;100.00;101121.47;5076097;28;20111;-82
2021/06/06 08:57:18;;;;;;;41.22;26.35;;;;;;;16.53;100.00;101122.34;5077561;28;20083;-81
2021/06/06 08:59:51;;;;;;;42.33;27.35;;;;;;;16.62;100.00;101122.03;5076625;28;20052;-82
2021/06/06 09:02:26;;;;;;;41.25;28.17;;;;;;;16.72;100.00;101126.06;5078540;28;20020;-82
2021/06/06 09:04:51;;;;;;;;;;;;;;;16.84;100.00;101131.81;5077939;28;20024;-81
2021/06/06 09:07:34;;;;;;;41.42;28.27;;;;;;;16.88;100.00;101131.66;5078744;28;19916;-81
2021/06/06 09:10:11;;;;;;;39.58;26.17;;;;;;;17.01;100.00;101135.53;5079082;28;20024;-81
2021/06/06 09:12:37;;;;;;;39.50;26.73;;;;;;;16.83;100.00;101132.72;5079144;28;20033;-81
2021/06/06 09:15:06;;;;;;;35.70;25.55;;;;;;;16.90;100.00;101137.72;5077872;28;20021;-81
2021/06/06 09:17:49;;;;;;;38.65;25.58;;;;;;;17.18;100.00;101132.34;5079209;28;20107;-81
2021/06/06 09:20:36;;;;;;;40.47;26.92;;;;;;;17.18;100.00;101128.81;5077988;28;20040;-81
2021/06/06 09:23:16;;;;;;;37.17;26.27;;;;;;;17.20;100.00;101134.88;5090425;28;20020;-81
2021/06/06 09:25:45;;;;;;;35.72;25.17;;;;;;;17.18;100.00;101139.31;5101257;28;20016;-82
2021/06/06 09:28:18;;;;;;;34.72;24.35;;;;;;;17.05;100.00;101143.28;5080797;28;20025;-81
2021/06/06 09:30:43;;;;;;;33.10;23.77;;;;;;;17.02;100.00;101141.63;5076923;28;20029;-81
2021/06/06 09:33:13;;;;;;;34.25;23.92;;;;;;;16.80;100.00;101142.38;5076802;28;20077;-81
2021/06/06 09:35:51;;;;;;;32.85;23.92;;;;;;;16.76;100.00;101140.78;5077455;28;20039;-80
2021/06/06 09:38:29;;;;;;;33.03;23.55;;;;;;;16.90;100.00;101139.44;5077338;28;20024;-82
2021/06/06 09:40:54;;;;;;;29.17;21.85;;;;;;;16.88;100.00;101146.53;5077774;28;20028;-81
2021/06/06 09:43:31;;;;;;;34.15;23.38;;;;;;;16.84;100.00;101140.56;5077775;28;20047;-80
2021/06/06 09:46:12;;;;;;;31.73;22.67;;;;;;;16.91;100.00;101142.03;5078924;28;20017;-80
2021/06/06 09:48:41;;;;;;;34.33;24.27;;;;;;;17.07;100.00;101139.72;5090508;28;20039;-80
2021/06/06 09:51:17;;;;;;;32.75;23.40;;;;;;;17.10;100.00;101138.75;5079961;28;20051;-80
2021/06/06 09:53:44;;;;;;;32.20;23.17;;;;;;;17.46;100.00;101144.41;5079351;28;20031;-80
2021/06/06 09:56:24;;;;;;;34.20;23.85;;;;;;;17.37;100.00;101144.75;5077314;28;20055;-80
2021/06/06 09:58:50;;;;;;;30.25;22.15;;;;;;;17.55;100.00;101151.94;5077575;28;20032;-80
2021/06/06 10:01:18;;;;;;;33.70;22.63;;;;;;;17.50;100.00;101151.25;5078512;28;20058;-80
2021/06/06 10:03:58;;;;;;;31.40;22.40;;;;;;;17.74;100.00;101140.75;5076801;28;20031;-80
2021/06/06 10:06:23;;;;;;;30.13;22.95;;;;;;;17.79;100.00;101139.66;5075973;28;20044;-80
2021/06/06 10:09:04;;;;;;;29.30;22.23;;;;;;;17.74;100.00;101138.97;5081810;28;20051;-81
2021/06/06 10:11:36;;;;;;;32.72;22.85;;;;;;;17.73;100.00;101147.75;5089352;28;20270;-81
2021/06/06 10:14:02;;;;;;;31.02;22.10;;;;;;;17.76;100.00;101138.91;5078247;28;20520;-81
2021/06/06 10:16:34;;;;;;;27.88;21.20;;;;;;;17.53;100.00;101142.41;5077576;28;20423;-81
2021/06/06 10:19:07;;;;;;;29.73;22.50;;;;;;;17.57;100.00;101160.59;5077733;28;20024;-80
2021/06/06 10:21:36;;;;;;;29.88;22.83;;;;;;;17.77;100.00;101156.38;5076248;28;20024;-81
2021/06/06 10:24:25;;;;;;;27.05;21.63;;;;;;;17.54;100.00;101154.59;5078024;28;20024;-80
2021/06/06 10:26:52;;;;;;;29.38;23.08;;;;;;;17.48;100.00;101158.31;5076563;28;20111;-81
2021/06/06 10:29:26;;;;;;;30.95;22.13;;;;;;;17.74;100.00;101157.34;5075993;28;20085;-81
2021/06/06 10:31:54;;;;;;;30.52;23.40;;;;;;;17.71;100.00;101152.22;5075890;28;20028;-80
2021/06/06 10:34:41;;;;;;;29.52;23.05;;;;;;;17.65;100.00;101166.41;5077248;28;20024;-80
2021/06/06 10:37:08;;;;;;;30.02;22.65;;;;;;;17.54;100.00;101165.94;5076479;28;20528;-80
2021/06/06 10:39:39;;;;;;;29.35;22.08;;;;;;;17.53;100.00;101163.41;5077387;28;20043;-81
2021/06/06 10:42:09;;;;;;;29.95;23.90;;;;;;;17.36;100.00;101166.63;5075303;28;20020;-81
2021/06/06 10:44:56;;;;;;;28.05;22.63;;;;;;;17.31;100.00;101158.94;5075234;28;20024;-81
2021/06/06 10:47:30;;;;;;;28.90;22.88;;;;;;;17.31;100.00;101160.72;5075153;28;20024;-81
2021/06/06 10:50:04;;;;;;;29.05;23.00;;;;;;;17.25;100.00;101165.28;5075314;28;20033;-80
2021/06/06 10:52:34;;;;;;;29.33;22.27;;;;;;;17.29;100.00;101171.25;5076067;28;20036;-81
2021/06/06 10:55:16;;;;;;;28.88;22.40;;;;;;;17.17;100.00;101164.69;5074693;28;20447;-81
2021/06/06 10:57:42;;;;;;;28.85;23.42;;;;;;;17.28;100.00;101160.84;5075060;28;20032;-81
2021/06/06 11:00:18;;;;;;;30.33;22.45;;;;;;;17.31;100.00;101163.34;5074139;28;20020;-81
2021/06/06 11:02:52;;;;;;;28.20;22.77;;;;;;;17.45;100.00;101161.91;5074783;28;20024;-81
2021/06/06 11:05:39;;;;;;;30.10;23.48;;;;;;;17.71;100.00;101162.72;5074724;28;20028;-81
2021/06/06 11:08:27;;;;;;;27.27;22.48;;;;;;;17.85;100.00;101159.56;5074647;28;20523;-81
2021/06/06 11:11:20;;;;;;;28.35;21.80;;;;;;;17.85;100.00;101159.56;5071532;28;20055;-81
2021/06/06 11:13:55;;;;;;;28.67;22.10;;;;;;;17.62;100.00;101163.91;5075721;28;20024;-81
2021/06/06 11:16:28;;;;;;;25.63;21.67;;;;;;;17.65;100.00;101161.16;5075212;28;20111;-81
2021/06/06 11:19:04;;;;;;;28.55;22.73;;;;;;;17.42;100.00;101169.88;5075333;28;20051;-81